Time;durP1;ratioP1;P1;durP2;ratioP2;P2;SDS_P1;SDS_P2;PMS_P1;PMS_P2;Temp;Humidity;BMP_temperature;BMP_pressure;BME280_temperature;BME280_humidity;BME280_pressure;Samples;Min_cycle;Max_cycle;Signal;HPM_P1;HPM_P2
2022/09/03 00:01:36;;;;;;;3.63;0.80;;;14.80;99.90;;;;;;2603522;54;20068;31
2022/09/03 00:04:16;;;;;;;2.97;1.33;;;14.80;99.90;;;;;;2622137;46;20026;31
2022/09/03 00:07:02;;;;;;;3.00;0.80;;;14.80;99.90;;;;;;2603474;54;20034;31
2022/09/03 00:09:43;;;;;;;2.70;1.17;;;14.70;99.90;;;;;;2621697;46;20142;31
2022/09/03 00:12:19;;;;;;;1.98;0.70;;;14.60;99.90;;;;;;2603658;54;20082;31
2022/09/03 00:14:56;;;;;;;2.30;0.90;;;14.60;99.90;;;;;;2603477;54;20125;31
2022/09/03 00:17:34;;;;;;;1.73;0.80;;;14.60;99.90;;;;;;2603417;54;20035;31
2022/09/03 00:20:10;;;;;;;3.70;1.00;;;14.60;99.90;;;;;;2603432;54;20785;31
2022/09/03 00:22:46;;;;;;;1.77;0.80;;;14.60;99.90;;;;;;2621736;46;20053;31
2022/09/03 00:25:26;;;;;;;4.10;1.25;;;14.50;99.90;;;;;;2720969;39;21034;31
2022/09/03 00:28:01;;;;;;;1.48;0.68;;;14.50;99.90;;;;;;2603595;54;20107;31
2022/09/03 00:30:36;;;;;;;2.30;0.90;;;14.40;99.90;;;;;;2621714;46;20898;31
2022/09/03 00:33:12;;;;;;;2.58;0.80;;;14.40;99.90;;;;;;2603414;54;20029;31
2022/09/03 00:35:49;;;;;;;5.00;1.15;;;14.40;99.90;;;;;;2621253;46;20565;31
2022/09/03 00:38:25;;;;;;;3.85;1.23;;;14.30;99.90;;;;;;2603492;54;20030;31
2022/09/03 00:41:09;;;;;;;2.50;0.75;;;14.30;99.90;;;;;;2621805;46;20879;31
2022/09/03 00:43:52;;;;;;;2.95;0.93;;;14.20;99.90;;;;;;2603324;54;20085;31
2022/09/03 00:46:26;;;;;;;2.13;0.73;;;14.20;99.90;;;;;;2603484;54;20598;31
2022/09/03 00:49:13;;;;;;;2.70;0.77;;;14.20;99.90;;;;;;2603559;54;20853;31
2022/09/03 00:51:46;;;;;;;2.25;0.90;;;14.20;99.90;;;;;;2603220;54;20027;31
2022/09/03 00:54:25;;;;;;;3.10;1.15;;;14.20;99.90;;;;;;2603421;54;20023;31
2022/09/03 00:57:11;;;;;;;2.38;0.93;;;14.10;99.90;;;;;;2603691;54;20030;31
2022/09/03 00:59:49;;;;;;;1.70;0.70;;;14.00;99.90;;;;;;2603524;54;20683;31
2022/09/03 01:02:27;;;;;;;3.22;1.10;;;14.00;99.90;;;;;;2603253;54;21320;31
2022/09/03 01:05:04;;;;;;;2.45;1.10;;;14.00;99.90;;;;;;2603287;54;20910;31
2022/09/03 01:07:45;;;;;;;2.13;0.98;;;14.00;99.90;;;;;;2603252;54;20900;31
2022/09/03 01:10:26;;;;;;;5.97;1.20;;;13.90;99.90;;;;;;2603508;54;20921;31
2022/09/03 01:13:09;;;;;;;2.45;0.98;;;13.80;99.90;;;;;;2602363;54;20874;31
2022/09/03 01:15:47;;;;;;;4.72;0.90;;;13.80;99.90;;;;;;2602618;54;20041;31
2022/09/03 01:18:24;;;;;;;2.37;0.90;;;13.80;99.90;;;;;;2603331;54;20811;31
2022/09/03 01:21:06;;;;;;;3.15;1.10;;;13.80;99.90;;;;;;2603210;54;20859;31
2022/09/03 01:23:58;;;;;;;3.85;1.20;;;13.70;99.90;;;;;;2603335;54;20023;31
2022/09/03 01:26:54;;;;;;;3.20;0.90;;;13.70;99.90;;;;;;2621853;46;21028;31
2022/09/03 01:29:34;;;;;;;2.88;0.70;;;13.60;99.90;;;;;;2603131;54;20034;31
2022/09/03 01:32:14;;;;;;;3.95;1.20;;;13.60;99.90;;;;;;2602926;54;20026;31
2022/09/03 01:34:53;;;;;;;2.35;0.80;;;13.60;99.90;;;;;;2603198;54;20038;31
2022/09/03 01:37:33;;;;;;;2.75;1.00;;;13.60;99.90;;;;;;2603154;54;20038;31
2022/09/03 01:40:12;;;;;;;3.50;0.77;;;13.50;99.90;;;;;;2772962;31;20684;31
2022/09/03 01:42:53;;;;;;;3.80;1.15;;;13.40;99.90;;;;;;2621563;46;20030;31
2022/09/03 01:45:48;;;;;;;4.72;1.10;;;13.40;99.90;;;;;;2603110;54;20058;31
2022/09/03 01:48:45;;;;;;;6.45;1.20;;;13.40;99.90;;;;;;2603045;54;20038;31
2022/09/03 01:51:19;;;;;;;4.10;1.27;;;13.40;99.90;;;;;;2603037;54;20031;31
2022/09/03 01:54:25;;;;;;;2.35;1.00;;;13.30;99.90;;;;;;2621620;46;20188;31
2022/09/03 01:57:33;;;;;;;4.03;1.00;;;13.20;99.90;;;;;;2602923;54;20961;31
2022/09/03 02:00:12;;;;;;;3.38;1.25;;;13.20;99.90;;;;;;2603101;54;19934;31
2022/09/03 02:02:50;;;;;;;2.40;1.03;;;13.10;99.90;;;;;;2603184;54;20796;31
2022/09/03 02:05:25;;;;;;;4.18;1.40;;;13.10;99.90;;;;;;2719860;39;20764;31
2022/09/03 02:08:01;;;;;;;2.10;1.07;;;13.10;99.90;;;;;;2603253;54;20832;31
2022/09/03 02:10:39;;;;;;;5.18;1.17;;;13.00;99.90;;;;;;2621318;47;21221;31
2022/09/03 02:13:20;;;;;;;3.15;1.00;;;13.00;99.90;;;;;;2621572;47;20034;31
2022/09/03 02:15:55;;;;;;;3.13;1.08;;;12.90;99.90;;;;;;2603140;54;20089;31
2022/09/03 02:18:35;;;;;;;5.90;1.20;;;12.80;99.90;;;;;;2602857;54;19965;31
2022/09/03 02:21:12;;;;;;;4.40;1.40;;;12.80;99.90;;;;;;2602984;54;20033;31
2022/09/03 02:23:47;;;;;;;7.32;1.40;;;12.70;99.90;;;;;;2602986;54;20959;31
2022/09/03 02:26:23;;;;;;;2.17;1.20;;;12.70;99.90;;;;;;2603217;54;20896;31
2022/09/03 02:28:58;;;;;;;3.80;1.07;;;12.70;99.90;;;;;;2602961;54;20026;31
2022/09/03 02:31:33;;;;;;;2.42;0.90;;;12.60;99.90;;;;;;2602952;54;20249;31
2022/09/03 02:34:10;;;;;;;2.67;0.90;;;12.60;99.90;;;;;;2603334;54;20038;31
2022/09/03 02:36:47;;;;;;;3.03;0.90;;;12.60;99.90;;;;;;2602819;54;20061;31
2022/09/03 02:39:21;;;;;;;3.13;1.30;;;12.60;99.90;;;;;;2602887;54;20809;31
2022/09/03 02:41:57;;;;;;;2.20;1.10;;;12.50;99.90;;;;;;2603036;54;20948;31
2022/09/03 02:44:34;;;;;;;3.25;1.27;;;12.50;99.90;;;;;;2603950;54;20921;31
2022/09/03 02:47:13;;;;;;;3.85;1.10;;;12.50;99.90;;;;;;2603629;54;20023;31
2022/09/03 02:52:22;;;;;;;4.60;1.35;;;12.30;99.90;;;;;;2622023;46;20078;31
2022/09/03 02:54:56;;;;;;;2.50;1.25;;;12.30;99.90;;;;;;2621892;46;20089;31
2022/09/03 02:57:34;;;;;;;3.27;1.13;;;12.30;99.90;;;;;;2603669;54;20922;31
2022/09/03 03:00:12;;;;;;;3.60;1.50;;;12.30;99.90;;;;;;2622277;46;20037;31
2022/09/03 03:02:50;;;;;;;5.07;1.52;;;12.30;99.90;;;;;;2603698;54;20026;31
2022/09/03 03:05:28;;;;;;;4.30;1.20;;;12.30;99.90;;;;;;2603764;54;20027;31
2022/09/03 03:08:07;;;;;;;3.90;1.40;;;12.20;99.90;;;;;;2603656;54;20093;31
2022/09/03 03:10:43;;;;;;;3.25;1.23;;;12.10;99.90;;;;;;2604056;54;20027;31
2022/09/03 03:13:17;;;;;;;2.30;1.10;;;12.10;99.90;;;;;;2603584;54;20031;31
2022/09/03 03:15:53;;;;;;;5.10;1.40;;;12.10;99.90;;;;;;2603888;54;20137;31
2022/09/03 03:18:28;;;;;;;3.75;1.30;;;12.00;99.90;;;;;;2603913;54;20026;31
2022/09/03 03:21:06;;;;;;;3.10;1.42;;;12.00;99.90;;;;;;2622230;46;20034;31
2022/09/03 03:23:43;;;;;;;3.15;1.58;;;12.00;99.90;;;;;;2603687;54;20031;31
2022/09/03 03:26:19;;;;;;;3.08;1.27;;;11.90;99.90;;;;;;2603801;54;20031;31
2022/09/03 03:28:58;;;;;;;3.90;1.30;;;11.90;99.90;;;;;;2603545;54;20169;31
2022/09/03 03:31:33;;;;;;;3.90;1.20;;;11.90;99.90;;;;;;2622436;46;20120;31
2022/09/03 03:34:08;;;;;;;3.20;1.25;;;11.80;99.90;;;;;;2603450;54;20026;31
2022/09/03 03:36:42;;;;;;;4.65;1.60;;;11.80;99.90;;;;;;2603525;54;20789;31
2022/09/03 03:39:22;;;;;;;5.57;1.53;;;11.70;99.90;;;;;;2603532;54;20112;31
2022/09/03 03:41:58;;;;;;;3.53;1.38;;;11.70;99.90;;;;;;2603454;54;20034;31
2022/09/03 03:44:33;;;;;;;4.70;1.70;;;11.70;99.90;;;;;;2603472;54;20034;31
2022/09/03 03:47:08;;;;;;;5.47;1.47;;;11.60;99.90;;;;;;2603597;54;20030;31
2022/09/03 03:49:42;;;;;;;6.80;1.85;;;11.50;99.90;;;;;;2603586;54;20250;31
2022/09/03 03:52:17;;;;;;;4.18;1.23;;;11.60;99.90;;;;;;2603531;54;20373;31
2022/09/03 03:54:55;;;;;;;2.70;1.35;;;11.50;99.90;;;;;;2603508;54;20029;31
2022/09/03 03:57:31;;;;;;;2.50;1.50;;;11.50;99.90;;;;;;2603736;54;20919;31
2022/09/03 04:00:07;;;;;;;2.33;1.30;;;11.50;99.90;;;;;;2603558;54;20057;31
2022/09/03 04:02:48;;;;;;;2.15;1.00;;;11.40;99.90;;;;;;2603642;54;20030;31
2022/09/03 04:05:23;;;;;;;6.05;1.88;;;11.40;99.90;;;;;;2603291;54;20026;31
2022/09/03 04:08:03;;;;;;;4.57;1.77;;;11.40;99.90;;;;;;2603395;54;20108;31
2022/09/03 04:10:42;;;;;;;4.18;1.38;;;11.30;99.90;;;;;;2622205;46;20031;31
2022/09/03 04:13:16;;;;;;;5.15;1.80;;;11.40;99.90;;;;;;2621777;46;20790;31
2022/09/03 04:15:52;;;;;;;4.95;1.60;;;11.30;99.90;;;;;;2603489;54;20033;31
2022/09/03 04:18:26;;;;;;;4.03;1.80;;;11.30;99.90;;;;;;2603167;54;20748;31
2022/09/03 04:21:05;;;;;;;3.55;1.10;;;11.30;99.90;;;;;;2603303;54;20895;31
2022/09/03 04:23:41;;;;;;;4.25;1.58;;;11.30;99.90;;;;;;2603561;54;20030;31
2022/09/03 04:26:19;;;;;;;4.10;1.53;;;11.30;99.90;;;;;;2603391;54;20030;31
2022/09/03 04:28:55;;;;;;;3.00;1.77;;;11.30;99.90;;;;;;2603529;54;20030;31
2022/09/03 04:31:31;;;;;;;5.35;1.50;;;11.20;99.90;;;;;;2603378;54;20037;31
2022/09/03 04:34:05;;;;;;;2.63;1.25;;;11.20;99.90;;;;;;2603443;54;20034;31
2022/09/03 04:36:39;;;;;;;4.37;1.40;;;11.20;99.90;;;;;;2603499;54;20085;31
2022/09/03 04:39:14;;;;;;;5.28;1.92;;;11.30;99.90;;;;;;2603463;54;20068;31
2022/09/03 04:41:53;;;;;;;3.97;1.30;;;11.30;99.90;;;;;;2603330;54;20917;31
2022/09/03 04:44:37;;;;;;;5.25;1.75;;;11.30;99.90;;;;;;2621828;46;20030;31
2022/09/03 04:47:12;;;;;;;4.90;1.48;;;11.40;99.90;;;;;;2603525;54;20810;31
2022/09/03 04:49:49;;;;;;;4.90;1.40;;;11.40;99.90;;;;;;2603346;54;20858;31
2022/09/03 04:52:24;;;;;;;2.85;1.58;;;11.60;99.90;;;;;;2603473;54;20030;31
2022/09/03 04:54:58;;;;;;;5.00;1.80;;;11.70;99.90;;;;;;2603148;54;20782;31
2022/09/03 04:57:38;;;;;;;4.13;2.17;;;11.80;99.90;;;;;;2603306;54;20269;31
2022/09/03 05:00:16;;;;;;;5.78;2.00;;;12.10;99.90;;;;;;2603568;54;20034;31
2022/09/03 05:02:54;;;;;;;5.53;2.20;;;12.00;99.90;;;;;;2603316;54;20030;31
2022/09/03 05:05:30;;;;;;;4.70;1.90;;;12.20;99.90;;;;;;2603078;54;20026;31
2022/09/03 05:08:03;;;;;;;3.28;1.50;;;12.30;99.90;;;;;;2720110;39;22487;31
2022/09/03 05:10:42;;;;;;;2.63;1.63;;;12.50;99.90;;;;;;2603327;54;20034;31
2022/09/03 05:13:20;;;;;;;4.55;1.85;;;12.70;99.90;;;;;;2603450;54;20030;31
2022/09/03 05:15:55;;;;;;;5.55;1.80;;;12.80;99.90;;;;;;2603238;54;20030;31
2022/09/03 05:18:29;;;;;;;4.40;2.00;;;13.00;99.90;;;;;;2603201;54;20732;31
2022/09/03 05:21:05;;;;;;;4.13;1.60;;;13.00;99.90;;;;;;2603167;54;20026;31
2022/09/03 05:23:38;;;;;;;3.10;1.50;;;13.10;99.90;;;;;;2720129;39;22811;31
2022/09/03 05:26:14;;;;;;;3.15;1.48;;;13.20;99.90;;;;;;2603574;54;20030;31
2022/09/03 05:28:55;;;;;;;4.50;1.85;;;13.20;99.90;;;;;;2603215;54;20125;31
2022/09/03 05:31:31;;;;;;;4.90;1.80;;;13.20;99.90;;;;;;2603143;54;20773;31
2022/09/03 05:34:10;;;;;;;5.10;2.25;;;13.30;99.90;;;;;;2621846;46;20277;31
2022/09/03 05:36:51;;;;;;;5.05;2.30;;;13.20;99.90;;;;;;2603194;54;20277;31
2022/09/03 05:39:26;;;;;;;3.67;2.07;;;13.20;99.90;;;;;;2603204;54;20132;31
2022/09/03 05:42:01;;;;;;;4.10;2.03;;;13.30;99.90;;;;;;2603265;54;19957;31
2022/09/03 05:44:41;;;;;;;5.50;2.10;;;13.40;99.90;;;;;;2603138;54;20121;31
2022/09/03 05:47:16;;;;;;;7.53;2.40;;;13.50;99.90;;;;;;2621922;46;20830;31
2022/09/03 05:49:51;;;;;;;5.70;2.60;;;13.80;99.90;;;;;;2603277;54;20888;31
2022/09/03 05:52:26;;;;;;;4.82;2.28;;;14.00;99.90;;;;;;2603149;54;20093;31
2022/09/03 05:55:05;;;;;;;4.07;2.10;;;14.10;99.90;;;;;;2621644;46;20093;31
2022/09/03 05:57:45;;;;;;;5.73;2.17;;;14.20;99.90;;;;;;2603224;54;20026;31
2022/09/03 06:00:23;;;;;;;5.80;2.42;;;14.10;99.90;;;;;;2603239;54;20034;31
2022/09/03 06:02:58;;;;;;;4.73;2.40;;;14.10;99.90;;;;;;2603288;54;20858;31
2022/09/03 06:05:34;;;;;;;5.63;2.13;;;14.30;99.90;;;;;;2603094;54;20801;31
2022/09/03 06:08:09;;;;;;;6.80;2.30;;;14.30;99.90;;;;;;2621535;47;20900;31
2022/09/03 06:10:48;;;;;;;7.43;2.00;;;14.60;99.90;;;;;;2603201;54;20783;31
2022/09/03 06:13:23;;;;;;;7.13;2.60;;;14.90;99.90;;;;;;2621300;47;20060;31
2022/09/03 06:16:02;;;;;;;6.37;2.33;;;15.20;99.90;;;;;;2603216;54;20030;31
2022/09/03 06:18:39;;;;;;;5.75;2.20;;;15.70;99.90;;;;;;2603784;54;20030;31
2022/09/03 06:21:14;;;;;;;5.30;2.00;;;16.10;99.90;;;;;;2603738;54;20054;31
2022/09/03 06:23:51;;;;;;;2.77;1.83;;;16.50;99.90;;;;;;2604016;54;20089;31
2022/09/03 06:26:30;;;;;;;3.70;1.70;;;16.60;99.90;;;;;;2603887;54;20030;31
2022/09/03 06:29:04;;;;;;;6.15;1.90;;;16.80;99.90;;;;;;2603911;54;20026;31
2022/09/03 06:31:42;;;;;;;6.13;2.05;;;17.10;99.90;;;;;;2603739;54;20105;31
2022/09/03 06:34:18;;;;;;;3.95;1.65;;;17.30;99.90;;;;;;2603984;54;20030;31
2022/09/03 06:36:53;;;;;;;3.15;1.65;;;17.50;99.90;;;;;;2603956;54;20037;31
2022/09/03 06:39:30;;;;;;;5.25;1.60;;;17.70;99.90;;;;;;2603855;54;20031;31
2022/09/03 06:42:08;;;;;;;7.47;2.08;;;17.90;99.90;;;;;;2603658;54;20026;31
2022/09/03 06:44:44;;;;;;;4.38;1.90;;;17.80;99.90;;;;;;2603819;54;20049;31
2022/09/03 06:47:23;;;;;;;3.30;1.90;;;17.70;99.90;;;;;;2604048;54;20831;31
2022/09/03 06:49:58;;;;;;;6.85;2.00;;;18.10;99.90;;;;;;2603622;54;20381;31
2022/09/03 06:52:34;;;;;;;3.20;2.03;;;18.20;99.90;;;;;;2622014;46;20943;31
2022/09/03 06:55:10;;;;;;;4.70;1.95;;;18.40;99.90;;;;;;2604041;54;20075;31
2022/09/03 06:57:47;;;;;;;3.50;1.85;;;18.70;99.90;;;;;;2603642;54;20033;31
2022/09/03 07:00:26;;;;;;;5.07;1.80;;;18.80;99.90;;;;;;2603743;54;20064;31
2022/09/03 07:03:10;;;;;;;7.97;1.77;;;18.60;99.90;;;;;;2603639;54;20026;31
2022/09/03 07:05:45;;;;;;;6.53;1.83;;;18.70;99.90;;;;;;2603815;54;19935;31
2022/09/03 07:08:22;;;;;;;4.22;1.73;;;18.60;99.90;;;;;;2603799;54;20016;31
2022/09/03 07:11:07;;;;;;;3.83;1.70;;;18.60;99.90;;;;;;2603566;54;20032;31
2022/09/03 07:13:42;;;;;;;3.67;1.65;;;18.80;99.90;;;;;;2603795;54;20046;31
2022/09/03 07:16:18;;;;;;;4.13;1.92;;;18.90;99.90;;;;;;2622275;46;20042;31
2022/09/03 07:18:56;;;;;;;;;;;19.00;99.90;;;;;;2603677;54;20955;31
2022/09/03 07:21:35;;;;;;;3.45;1.90;;;19.20;99.90;;;;;;2622077;46;19950;31
2022/09/03 07:24:21;;;;;;;4.28;2.20;;;19.50;99.90;;;;;;2603733;54;20764;31
2022/09/03 07:26:56;;;;;;;4.95;1.77;;;19.90;99.90;;;;;;2603568;54;20815;31
2022/09/03 07:29:32;;;;;;;4.43;1.98;;;20.10;99.90;;;;;;2603176;54;20795;31
2022/09/03 07:32:08;;;;;;;6.63;2.30;;;20.50;99.90;;;;;;2603593;54;20089;31
2022/09/03 07:34:51;;;;;;;5.63;2.33;;;20.80;99.90;;;;;;2603769;54;20026;31
2022/09/03 07:37:26;;;;;;;7.30;2.33;;;20.90;99.90;;;;;;2603600;54;20895;31
2022/09/03 07:40:01;;;;;;;3.77;1.83;;;21.20;99.90;;;;;;2603397;54;20847;31
2022/09/03 07:42:37;;;;;;;3.80;2.15;;;21.50;99.90;;;;;;2603432;54;21224;31
2022/09/03 07:45:13;;;;;;;7.00;2.10;;;21.60;99.90;;;;;;2603440;54;20859;31
2022/09/03 07:47:50;;;;;;;4.47;2.03;;;21.60;99.90;;;;;;2621954;46;20022;31
2022/09/03 07:50:31;;;;;;;6.07;2.23;;;21.80;99.90;;;;;;2603473;54;20027;31
2022/09/03 07:53:10;;;;;;;7.32;2.13;;;21.90;99.90;;;;;;2603584;54;20952;31
2022/09/03 07:55:45;;;;;;;5.50;2.40;;;22.00;99.90;;;;;;2603491;54;20048;31
2022/09/03 07:58:23;;;;;;;5.37;2.10;;;22.10;99.90;;;;;;2603734;54;20068;31
2022/09/03 08:00:59;;;;;;;6.40;2.20;;;22.10;99.90;;;;;;2603742;54;20234;31
2022/09/03 08:03:34;;;;;;;6.15;3.10;;;22.20;99.90;;;;;;2603449;54;20093;31
2022/09/03 08:06:13;;;;;;;27.70;13.55;;;22.30;99.90;;;;;;2603579;54;20101;31
2022/09/03 08:08:47;;;;;;;7.37;3.70;;;22.20;99.90;;;;;;2603755;54;20027;31
2022/09/03 08:11:25;;;;;;;;;;;22.10;99.90;;;;;;2603528;54;20027;31
2022/09/03 08:14:23;;;;;;;10.40;2.45;;;22.00;99.90;;;;;;2603304;54;19934;31
2022/09/03 08:17:00;;;;;;;8.30;3.03;;;21.90;99.90;;;;;;2603248;54;20077;31
2022/09/03 08:19:36;;;;;;;6.30;3.60;;;21.90;99.90;;;;;;2603544;54;20754;31
2022/09/03 08:22:14;;;;;;;257.02;68.03;;;21.90;99.90;;;;;;2603593;54;20030;31
2022/09/03 08:24:49;;;;;;;11.13;4.50;;;21.70;99.90;;;;;;2621784;46;20035;31
2022/09/03 08:27:26;;;;;;;12.25;4.15;;;21.60;99.90;;;;;;2603308;54;20133;31
2022/09/03 08:30:03;;;;;;;6.40;2.90;;;21.50;99.90;;;;;;2622011;46;20086;31
2022/09/03 08:32:38;;;;;;;7.30;2.55;;;21.50;99.90;;;;;;2603262;54;20934;31
2022/09/03 08:35:13;;;;;;;13.60;5.65;;;21.60;99.90;;;;;;2603550;54;20109;31
2022/09/03 08:38:04;;;;;;;9.90;2.65;;;21.70;99.90;;;;;;2602801;54;20046;31
2022/09/03 08:40:41;;;;;;;13.50;5.00;;;21.80;99.90;;;;;;2603331;54;20022;31
2022/09/03 08:43:17;;;;;;;14.00;6.32;;;21.90;99.90;;;;;;2603043;54;20841;31
2022/09/03 08:45:52;;;;;;;8.70;2.60;;;22.10;99.90;;;;;;2603553;54;20031;31
2022/09/03 08:48:30;;;;;;;4.83;2.57;;;22.20;99.90;;;;;;2603573;54;20030;31
2022/09/03 08:51:08;;;;;;;10.40;3.10;;;22.00;99.90;;;;;;2621511;46;20073;31
2022/09/03 08:53:48;;;;;;;7.43;2.90;;;21.90;99.90;;;;;;2603121;54;20026;31
2022/09/03 08:58:57;;;;;;;6.17;2.57;;;21.90;99.90;;;;;;2603255;54;20879;31
2022/09/03 09:01:37;;;;;;;8.20;2.85;;;22.00;99.90;;;;;;2603186;54;21313;31
2022/09/03 09:04:16;;;;;;;5.95;3.17;;;22.30;99.90;;;;;;2603445;54;20899;31
2022/09/03 09:06:52;;;;;;;9.07;3.50;;;22.40;99.90;;;;;;2603442;54;20092;31
2022/09/03 09:09:34;;;;;;;5.70;3.15;;;22.70;99.90;;;;;;2621704;46;20034;31
2022/09/03 09:12:16;;;;;;;5.65;2.90;;;22.80;99.90;;;;;;2603213;54;20766;31
2022/09/03 09:14:59;;;;;;;5.18;2.47;;;23.00;99.90;;;;;;2603257;54;20969;31
2022/09/03 09:17:45;;;;;;;6.03;2.90;;;23.10;99.90;;;;;;2603396;54;20056;31
2022/09/03 09:20:17;;;;;;;6.20;3.03;;;23.20;99.90;;;;;;2603306;54;20758;31
2022/09/03 09:22:54;;;;;;;6.45;2.53;;;23.40;99.90;;;;;;2603372;54;20026;31
2022/09/03 09:25:34;;;;;;;7.88;3.00;;;23.50;99.90;;;;;;2603184;54;20925;31
2022/09/03 09:28:15;;;;;;;5.30;3.10;;;23.50;99.90;;;;;;2603266;54;20026;31
2022/09/03 09:30:52;;;;;;;9.23;3.33;;;23.70;99.90;;;;;;2603348;54;20112;31
2022/09/03 09:33:27;;;;;;;4.28;2.90;;;23.80;99.90;;;;;;2603144;54;20033;31
2022/09/03 09:36:07;;;;;;;4.50;3.20;;;23.90;99.90;;;;;;2603283;54;20137;31
2022/09/03 09:38:44;;;;;;;4.78;2.60;;;24.20;99.90;;;;;;2603340;54;20083;31
2022/09/03 09:41:23;;;;;;;7.25;2.47;;;24.30;99.90;;;;;;2603131;54;20105;31
2022/09/03 09:44:04;;;;;;;4.95;2.30;;;24.40;99.90;;;;;;2603206;54;20030;31
2022/09/03 09:46:41;;;;;;;8.88;2.90;;;24.60;99.90;;;;;;2603135;54;20046;31
2022/09/03 09:49:31;;;;;;;8.02;3.10;;;24.70;99.90;;;;;;2602899;54;20026;31
2022/09/03 09:52:10;;;;;;;8.35;3.00;;;24.70;99.90;;;;;;2621239;46;20022;31
2022/09/03 09:57:20;;;;;;;10.05;2.90;;;24.70;99.90;;;;;;2603135;54;20070;31
2022/09/03 10:00:06;;;;;;;4.82;2.60;;;24.80;99.90;;;;;;2603174;54;20042;31
2022/09/03 10:02:49;;;;;;;8.52;3.05;;;24.60;98.90;;;;;;2603054;54;20812;31
2022/09/03 10:05:26;;;;;;;4.90;2.33;;;24.60;99.30;;;;;;2603003;54;20030;31
2022/09/03 10:08:03;;;;;;;4.65;2.53;;;24.60;99.50;;;;;;2603215;54;20927;31
2022/09/03 10:10:42;;;;;;;6.77;2.57;;;24.60;98.40;;;;;;2603324;54;20042;31
2022/09/03 10:13:21;;;;;;;6.72;2.50;;;24.60;97.80;;;;;;2603341;54;20048;31
2022/09/03 10:16:00;;;;;;;3.70;2.30;;;24.50;97.60;;;;;;2603192;54;20920;31
2022/09/03 10:18:44;;;;;;;43.85;5.25;;;24.50;98.60;;;;;;2603201;54;20090;31
2022/09/03 10:21:22;;;;;;;4.80;2.85;;;24.60;97.60;;;;;;2621466;47;20029;31
2022/09/03 10:24:00;;;;;;;7.78;2.88;;;24.50;97.40;;;;;;2621216;47;20875;31
2022/09/03 10:26:43;;;;;;;5.53;2.27;;;24.50;97.50;;;;;;2603109;54;20054;31
2022/09/03 10:29:24;;;;;;;6.20;2.05;;;24.40;96.80;;;;;;2603021;54;20100;31
2022/09/03 10:32:06;;;;;;;7.60;2.53;;;24.20;97.00;;;;;;2603026;54;20993;31
2022/09/03 10:34:43;;;;;;;5.10;2.20;;;24.10;96.90;;;;;;2602048;54;20034;31
2022/09/03 10:37:21;;;;;;;5.47;2.47;;;24.00;96.60;;;;;;2621339;47;20037;31
2022/09/03 10:40:04;;;;;;;12.85;2.65;;;24.00;96.90;;;;;;2602930;54;20085;31
2022/09/03 10:42:44;;;;;;;4.28;2.28;;;24.00;97.00;;;;;;2602883;54;20924;31
2022/09/03 10:45:30;;;;;;;6.18;2.40;;;23.90;97.00;;;;;;2621625;47;20023;31
2022/09/03 10:48:34;;;;;;;6.28;2.78;;;24.00;96.60;;;;;;2602784;54;20027;31
2022/09/03 10:51:08;;;;;;;4.57;2.47;;;24.10;97.00;;;;;;2620955;47;20929;31
2022/09/03 10:53:51;;;;;;;4.67;2.20;;;24.20;97.30;;;;;;2621272;47;20150;31
2022/09/03 10:56:31;;;;;;;9.32;2.63;;;24.20;97.90;;;;;;2602700;54;20234;31
2022/09/03 10:59:12;;;;;;;6.25;2.85;;;24.10;96.80;;;;;;2602814;54;20153;31
2022/09/03 11:01:53;;;;;;;7.05;2.38;;;24.10;96.80;;;;;;2621302;47;20027;31
2022/09/03 11:04:31;;;;;;;8.05;2.50;;;24.00;96.80;;;;;;2603524;54;20127;31
2022/09/03 11:07:12;;;;;;;8.02;2.50;;;24.10;97.30;;;;;;2622150;46;20033;31
2022/09/03 11:09:50;;;;;;;6.07;2.45;;;24.20;97.60;;;;;;2603560;54;20876;31
2022/09/03 11:12:26;;;;;;;4.22;2.20;;;24.20;96.90;;;;;;2603628;54;20026;31
2022/09/03 11:15:04;;;;;;;5.82;2.67;;;24.20;97.70;;;;;;2603623;54;20148;31
2022/09/03 11:17:43;;;;;;;7.30;2.40;;;24.30;97.30;;;;;;2622013;46;20026;31
2022/09/03 11:20:20;;;;;;;42.87;5.50;;;24.40;97.20;;;;;;2603610;54;20297;31
2022/09/03 11:22:56;;;;;;;95.60;10.40;;;24.20;96.80;;;;;;2603841;54;20246;31
2022/09/03 11:25:33;;;;;;;8.93;2.88;;;24.00;97.00;;;;;;2603820;54;20031;31
2022/09/03 11:28:17;;;;;;;11.20;2.60;;;23.80;96.80;;;;;;2603760;54;20162;31
2022/09/03 11:30:59;;;;;;;60.80;7.75;;;23.90;97.50;;;;;;2621777;46;20103;31
2022/09/03 11:33:38;;;;;;;109.72;13.90;;;23.90;97.20;;;;;;2603747;54;20022;31
2022/09/03 11:36:12;;;;;;;121.13;13.98;;;23.90;97.40;;;;;;2602694;54;20022;31
2022/09/03 11:38:49;;;;;;;56.30;5.70;;;23.90;97.00;;;;;;2622018;46;20026;31
2022/09/03 11:41:27;;;;;;;6.18;2.60;;;23.80;96.70;;;;;;2603378;54;20278;31
2022/09/03 11:44:12;;;;;;;4.57;2.80;;;23.50;97.30;;;;;;2603513;54;20046;31
2022/09/03 11:47:00;;;;;;;6.10;2.60;;;23.40;97.40;;;;;;2603417;54;20034;31
2022/09/03 11:49:37;;;;;;;5.03;2.22;;;23.50;97.80;;;;;;2603512;54;20899;31
2022/09/03 11:52:12;;;;;;;9.10;2.60;;;23.60;98.30;;;;;;2603511;54;20049;31
2022/09/03 11:54:48;;;;;;;11.20;2.40;;;23.60;97.40;;;;;;2603545;54;20128;31
2022/09/03 11:57:28;;;;;;;5.45;2.60;;;23.60;97.60;;;;;;2603498;54;20157;31
2022/09/03 12:00:12;;;;;;;5.05;2.22;;;23.60;96.60;;;;;;2621695;46;20932;31
2022/09/03 12:02:47;;;;;;;6.15;2.22;;;23.70;96.70;;;;;;2621670;46;20879;31
2022/09/03 12:05:42;;;;;;;4.95;2.67;;;23.70;97.80;;;;;;2603337;54;20030;31
2022/09/03 12:08:42;;;;;;;6.75;2.55;;;23.60;97.50;;;;;;2603596;54;20885;31
2022/09/03 12:11:29;;;;;;;6.93;2.20;;;23.40;96.60;;;;;;2603391;54;20089;31
2022/09/03 12:14:06;;;;;;;3.58;1.80;;;23.20;97.10;;;;;;2603500;54;20026;31
2022/09/03 12:17:10;;;;;;;8.32;2.75;;;23.00;97.00;;;;;;2603151;54;20105;31
2022/09/03 12:19:47;;;;;;;188.75;14.18;;;22.90;97.20;;;;;;2621503;46;20036;31
2022/09/03 12:22:26;;;;;;;4.30;2.45;;;22.80;97.60;;;;;;2603452;54;20034;31
2022/09/03 12:25:10;;;;;;;4.38;2.03;;;22.60;97.60;;;;;;2603754;54;20026;31
2022/09/03 12:27:46;;;;;;;4.05;2.42;;;22.50;98.10;;;;;;2603415;54;20019;31
2022/09/03 12:30:23;;;;;;;63.23;5.27;;;22.30;97.60;;;;;;2603491;54;20050;31
2022/09/03 12:33:06;;;;;;;5.10;2.33;;;22.50;97.80;;;;;;2603397;54;20930;31
2022/09/03 12:35:41;;;;;;;385.90;21.97;;;22.30;98.20;;;;;;2603422;54;20113;31
2022/09/03 12:38:36;;;;;;;321.73;22.20;;;22.40;97.90;;;;;;2621622;46;20745;31
2022/09/03 12:41:32;;;;;;;10.00;2.25;;;22.40;97.90;;;;;;2603273;54;20877;31
2022/09/03 12:44:07;;;;;;;10.40;2.42;;;22.40;98.40;;;;;;2603576;54;20833;31
2022/09/03 12:46:42;;;;;;;114.85;8.05;;;22.40;98.30;;;;;;2603581;54;20027;31
2022/09/03 12:49:18;;;;;;;31.23;3.87;;;22.40;98.10;;;;;;2603441;54;20059;31
2022/09/03 12:52:12;;;;;;;9.45;2.88;;;22.30;98.10;;;;;;2603310;54;20053;31
2022/09/03 12:54:53;;;;;;;5.10;2.50;;;22.40;98.50;;;;;;2603291;54;20034;31
2022/09/03 12:57:29;;;;;;;7.45;2.65;;;22.50;99.20;;;;;;2603373;54;20029;31
2022/09/03 13:00:08;;;;;;;6.35;2.20;;;22.50;99.20;;;;;;2603244;54;20885;31
2022/09/03 13:02:45;;;;;;;8.90;2.38;;;22.50;98.40;;;;;;2603198;54;20022;31
2022/09/03 13:05:22;;;;;;;5.25;2.70;;;22.50;98.80;;;;;;2603232;54;20162;31
2022/09/03 13:07:58;;;;;;;6.50;2.42;;;22.40;99.00;;;;;;2603141;54;25042;31
2022/09/03 13:10:37;;;;;;;5.75;2.60;;;22.40;98.30;;;;;;2602423;54;20030;31
2022/09/03 13:13:21;;;;;;;4.50;2.30;;;22.40;98.40;;;;;;2603344;54;20026;31
2022/09/03 13:16:19;;;;;;;6.53;2.38;;;22.40;98.50;;;;;;2621408;46;20938;31
2022/09/03 13:18:56;;;;;;;6.57;2.17;;;22.30;98.70;;;;;;2603167;54;20018;31
2022/09/03 13:21:34;;;;;;;5.03;2.33;;;22.20;98.90;;;;;;2603220;54;20953;31
2022/09/03 13:24:32;;;;;;;6.82;2.55;;;22.10;98.80;;;;;;2603496;54;20888;31
2022/09/03 13:27:16;;;;;;;5.97;2.20;;;22.20;99.10;;;;;;2602784;54;20030;31
2022/09/03 13:30:04;;;;;;;6.95;2.60;;;22.20;98.50;;;;;;2603138;54;20023;31
2022/09/03 13:32:44;;;;;;;3.40;2.03;;;22.20;98.70;;;;;;2621239;46;20030;31
2022/09/03 13:35:25;;;;;;;6.03;3.35;;;22.20;98.70;;;;;;2603406;54;20823;31
2022/09/03 13:38:05;;;;;;;9.52;2.47;;;22.10;98.20;;;;;;2603154;54;20843;31
2022/09/03 13:40:43;;;;;;;4.80;2.40;;;22.00;98.60;;;;;;2603369;54;20096;31
2022/09/03 13:43:28;;;;;;;3.95;2.35;;;22.00;99.10;;;;;;2603037;54;20046;31
2022/09/03 13:46:05;;;;;;;6.03;2.75;;;21.90;98.80;;;;;;2603331;54;20023;31
2022/09/03 13:51:30;;;;;;;8.43;2.22;;;21.70;99.10;;;;;;2621347;46;20746;31
2022/09/03 13:54:10;;;;;;;7.60;2.73;;;21.70;98.90;;;;;;2602998;54;20031;31
2022/09/03 13:56:51;;;;;;;4.90;2.17;;;21.60;99.40;;;;;;2603270;54;20022;31
2022/09/03 13:59:35;;;;;;;5.13;2.57;;;21.60;99.90;;;;;;2603180;54;20029;31
2022/09/03 14:02:18;;;;;;;6.22;2.95;;;21.70;99.90;;;;;;2719937;39;20478;31
2022/09/03 14:05:06;;;;;;;8.15;2.40;;;21.80;99.90;;;;;;2603080;54;19942;31
2022/09/03 14:07:51;;;;;;;3.83;2.33;;;21.70;99.60;;;;;;2621888;47;20030;31